Time,TemperatureF,DewpointF,PressureIn,WindDirection,WindDirectionDegrees,WindSpeedMPH,WindSpeedGustMPH,Humidity,HourlyPrecipIn,Conditions,Clouds,dailyrainin,SoftwareType,DateUTC
2013-04-12 00:00:00,48.5,46.9,29.70,East,92,1.0,1.0,94,0.00,,,0.00,Wunderground v.1.15,2013-04-12 04:00:00,
2013-04-12 00:02:00,48.4,46.8,29.70,ENE,67,1.0,2.0,94,0.00,,,0.00,Wunderground v.1.15,2013-04-12 04:02:00,
2013-04-12 00:03:00,48.4,46.8,29.70,ENE,67,1.0,2.0,94,0.00,,,0.00,Wunderground v.1.15,2013-04-12 04:03:00,
2013-04-12 00:07:00,48.4,46.8,29.70,East,96,1.0,2.0,94,0.00,,,0.00,Wunderground v.1.15,2013-04-12 04:07:00,
2013-04-12 00:12:00,48.3,46.7,29.70,ESE,112,1.0,3.0,94,0.00,,,0.00,Wunderground v.1.15,2013-04-12 04:12:00,
2013-04-12 00:17:00,48.3,46.7,29.70,ESE,105,2.0,4.0,94,0.00,,,0.00,Wunderground v.1.15,2013-04-12 04:17:00,
2013-04-12 00:23:00,48.2,46.6,29.71,SSW,194,1.0,3.0,94,0.00,,,0.00,Wunderground v.1.15,2013-04-12 04:23:00,
2013-04-12 00:29:00,48.2,46.6,29.72,WSW,251,3.0,4.0,94,0.00,,,0.00,Wunderground v.1.15,2013-04-12 04:29:00,
2013-04-12 00:35:00,48.2,46.8,29.74,South,169,5.0,9.0,95,0.00,,,0.00,Wunderground v.1.15,2013-04-12 04:35:00,
2013-04-12 00:42:00,48.1,46.7,29.70,SSE,168,2.0,4.0,95,0.00,,,0.00,Wunderground v.1.15,2013-04-12 04:42:00,
2013-04-12 00:48:00,48.0,46.6,29.71,East,100,1.0,4.0,95,0.00,,,0.00,Wunderground v.1.15,2013-04-12 04:48:00,
2013-04-12 00:54:00,47.9,46.5,29.71,SSW,204,2.0,5.0,95,0.00,,,0.00,Wunderground v.1.15,2013-04-12 04:54:00,
2013-04-12 01:00:00,47.9,46.5,29.71,ESE,105,2.0,13.0,95,0.00,,,0.00,Wunderground v.1.15,2013-04-12 05:00:00,
2013-04-12 01:07:00,47.8,46.4,29.69,East,90,1.0,13.0,95,0.00,,,0.01,Wunderground v.1.15,2013-04-12 05:07:00,
2013-04-12 01:13:00,47.7,46.6,29.68,East,90,1.0,13.0,96,0.00,,,0.01,Wunderground v.1.15,2013-04-12 05:13:00,
2013-04-12 01:19:00,47.7,46.6,29.68,East,90,1.0,13.0,96,0.00,,,0.01,Wunderground v.1.15,2013-04-12 05:19:00,
2013-04-12 01:25:00,47.7,46.6,29.67,East,91,1.0,13.0,96,0.00,,,0.01,Wunderground v.1.15,2013-04-12 05:25:00,
2013-04-12 01:30:00,47.7,46.6,29.67,East,91,1.0,13.0,96,0.00,,,0.01,Wunderground v.1.15,2013-04-12 05:30:00,
2013-04-12 01:35:00,47.7,46.6,29.66,East,91,0.0,13.0,96,0.00,,,0.01,Wunderground v.1.15,2013-04-12 05:35:00,
2013-04-12 01:40:00,47.7,46.6,29.66,East,91,0.0,13.0,96,0.00,,,0.01,Wunderground v.1.15,2013-04-12 05:40:00,
2013-04-12 01:45:00,47.7,46.6,29.65,East,91,0.0,13.0,96,0.00,,,0.02,Wunderground v.1.15,2013-04-12 05:45:00,
2013-04-12 01:52:00,47.6,46.5,29.65,East,91,0.0,13.0,96,0.00,,,0.02,Wunderground v.1.15,2013-04-12 05:52:00,
2013-04-12 01:57:00,47.6,46.5,29.65,North,355,0.0,13.0,96,0.00,,,0.02,Wunderground v.1.15,2013-04-12 05:57:00,
2013-04-12 02:02:00,47.5,46.4,29.65,NNE,17,1.0,13.0,96,0.00,,,0.02,Wunderground v.1.15,2013-04-12 06:02:00,
2013-04-12 02:07:00,47.5,46.4,29.65,ENE,66,1.0,13.0,96,0.00,,,0.02,Wunderground v.1.15,2013-04-12 06:07:00,
2013-04-12 02:12:00,47.5,46.4,29.65,ENE,61,2.0,13.0,96,0.00,,,0.02,Wunderground v.1.15,2013-04-12 06:12:00,
2013-04-12 02:18:00,47.5,46.4,29.64,ENE,71,2.0,13.0,96,0.00,,,0.02,Wunderground v.1.15,2013-04-12 06:18:00,
2013-04-12 02:24:00,47.5,46.7,29.63,NE,40,3.0,13.0,97,0.00,,,0.02,Wunderground v.1.15,2013-04-12 06:24:00,
2013-04-12 02:29:00,47.5,46.7,29.63,ENE,77,3.0,13.0,97,0.00,,,0.02,Wunderground v.1.15,2013-04-12 06:29:00,
2013-04-12 02:35:00,47.6,46.8,29.63,East,88,3.0,13.0,97,0.00,,,0.02,Wunderground v.1.15,2013-04-12 06:35:00,
2013-04-12 02:40:00,47.7,46.9,29.62,East,92,4.0,13.0,97,0.00,,,0.02,Wunderground v.1.15,2013-04-12 06:40:00,
2013-04-12 02:45:00,47.9,47.1,29.61,ENE,78,5.0,13.0,97,0.00,,,0.02,Wunderground v.1.15,2013-04-12 06:45:00,
2013-04-12 02:50:00,48.0,47.2,29.61,South,175,3.0,13.0,97,0.00,,,0.02,Wunderground v.1.15,2013-04-12 06:50:00,
2013-04-12 02:55:00,48.2,47.4,29.61,ENE,72,3.0,13.0,97,0.00,,,0.02,Wunderground v.1.15,2013-04-12 06:55:00,
2013-04-12 03:01:00,48.3,47.5,29.61,East,80,2.0,13.0,97,0.00,,,0.02,Wunderground v.1.15,2013-04-12 07:01:00,
2013-04-12 03:07:00,48.3,47.5,29.61,SSE,161,1.0,13.0,97,0.00,,,0.02,Wunderground v.1.15,2013-04-12 07:07:00,
2013-04-12 03:12:00,48.4,47.6,29.60,SE,133,1.0,13.0,97,0.00,,,0.03,Wunderground v.1.15,2013-04-12 07:12:00,
2013-04-12 03:17:00,48.6,47.8,29.60,ESE,120,2.0,13.0,97,0.00,,,0.03,Wunderground v.1.15,2013-04-12 07:17:00,
2013-04-12 03:22:00,48.7,47.9,29.59,East,87,3.0,13.0,97,0.00,,,0.03,Wunderground v.1.15,2013-04-12 07:22:00,
2013-04-12 03:28:00,48.8,48.0,29.59,SSE,160,3.0,13.0,97,0.00,,,0.03,Wunderground v.1.15,2013-04-12 07:28:00,
2013-04-12 03:34:00,49.0,48.2,29.59,ESE,121,3.0,13.0,97,0.00,,,0.03,Wunderground v.1.15,2013-04-12 07:34:00,
2013-04-12 03:40:00,49.3,48.5,29.59,SE,139,3.0,13.0,97,0.00,,,0.03,Wunderground v.1.15,2013-04-12 07:40:00,
2013-04-12 03:45:00,49.5,48.7,29.59,East,94,3.0,13.0,97,0.00,,,0.03,Wunderground v.1.15,2013-04-12 07:45:00,
2013-04-12 03:50:00,49.9,49.1,29.58,SE,140,2.0,13.0,97,0.00,,,0.03,Wunderground v.1.15,2013-04-12 07:50:00,
2013-04-12 03:55:00,50.2,49.4,29.58,SE,127,2.0,13.0,97,0.00,,,0.03,Wunderground v.1.15,2013-04-12 07:55:00,
2013-04-12 04:00:00,50.5,50.0,29.58,SE,134,3.0,13.0,98,0.00,,,0.04,Wunderground v.1.15,2013-04-12 08:00:00,
2013-04-12 04:06:00,50.8,50.0,29.58,East,90,3.0,13.0,97,0.00,,,0.04,Wunderground v.1.15,2013-04-12 08:06:00,
2013-04-12 04:12:00,51.1,50.3,29.59,East,96,3.0,13.0,97,0.00,,,0.04,Wunderground v.1.15,2013-04-12 08:12:00,
2013-04-12 04:17:00,51.2,50.4,29.59,ESE,110,3.0,13.0,97,0.00,,,0.04,Wunderground v.1.15,2013-04-12 08:17:00,
2013-04-12 04:23:00,51.3,50.5,29.59,SSE,159,3.0,13.0,97,0.00,,,0.04,Wunderground v.1.15,2013-04-12 08:23:00,
2013-04-12 04:29:00,51.4,50.6,29.59,East,92,2.0,2.0,97,0.00,,,0.04,Wunderground v.1.15,2013-04-12 08:29:00,
2013-04-12 04:35:00,51.5,50.7,29.58,ENE,76,2.0,13.0,97,0.00,,,0.04,Wunderground v.1.15,2013-04-12 08:35:00,
2013-04-12 04:41:00,51.7,50.9,29.59,SSE,159,3.0,13.0,97,0.00,,,0.04,Wunderground v.1.15,2013-04-12 08:41:00,
2013-04-12 04:46:00,52.0,51.2,29.59,SE,143,2.0,13.0,97,0.00,,,0.04,Wunderground v.1.15,2013-04-12 08:46:00,
2013-04-12 04:53:00,52.3,51.5,29.59,ESE,107,2.0,13.0,97,0.00,,,0.04,Wunderground v.1.15,2013-04-12 08:53:00,
2013-04-12 04:58:00,52.4,51.6,29.59,SSE,168,1.0,13.0,97,0.00,,,0.04,Wunderground v.1.15,2013-04-12 08:58:00,
2013-04-12 05:03:00,52.6,51.8,29.59,SE,138,1.0,13.0,97,0.00,,,0.04,Wunderground v.1.15,2013-04-12 09:03:00,
2013-04-12 05:09:00,53.0,52.2,29.58,ESE,117,2.0,2.0,97,0.00,,,0.04,Wunderground v.1.15,2013-04-12 09:09:00,
2013-04-12 05:14:00,53.1,52.3,29.58,SSE,161,1.0,13.0,97,0.00,,,0.04,Wunderground v.1.15,2013-04-12 09:14:00,
2013-04-12 05:19:00,53.3,52.5,29.57,SE,141,1.0,13.0,97,0.00,,,0.04,Wunderground v.1.15,2013-04-12 09:19:00,
2013-04-12 05:24:00,53.5,52.7,29.57,SE,139,1.0,13.0,97,0.00,,,0.04,Wunderground v.1.15,2013-04-12 09:24:00,
2013-04-12 05:29:00,53.7,52.9,29.57,SE,145,1.0,1.0,97,0.00,,,0.04,Wunderground v.1.15,2013-04-12 09:29:00,
2013-04-12 05:35:00,53.9,53.1,29.57,SE,126,2.0,13.0,97,0.00,,,0.04,Wunderground v.1.15,2013-04-12 09:35:00,
2013-04-12 05:40:00,54.0,52.9,29.56,ESE,109,2.0,13.0,96,0.00,,,0.04,Wunderground v.1.15,2013-04-12 09:40:00,
2013-04-12 05:47:00,54.1,53.0,29.56,SE,130,2.0,13.0,96,0.00,,,0.04,Wunderground v.1.15,2013-04-12 09:47:00,
2013-04-12 05:53:00,54.3,53.5,29.56,SE,130,2.0,13.0,97,0.00,,,0.05,Wunderground v.1.15,2013-04-12 09:53:00,
2013-04-12 05:58:00,54.4,53.6,29.56,SE,146,2.0,13.0,97,0.00,,,0.05,Wunderground v.1.15,2013-04-12 09:58:00,
2013-04-12 06:03:00,54.5,53.4,29.56,SSE,162,1.0,2.0,96,0.00,,,0.05,Wunderground v.1.15,2013-04-12 10:03:00,
2013-04-12 06:08:00,54.4,53.3,29.55,ESE,113,0.0,2.0,96,0.00,,,0.05,Wunderground v.1.15,2013-04-12 10:08:00,
2013-04-12 06:13:00,54.3,53.2,29.55,ESE,117,1.0,2.0,96,0.00,,,0.05,Wunderground v.1.15,2013-04-12 10:13:00,
2013-04-12 06:18:00,54.2,53.1,29.55,SE,126,1.0,2.0,96,0.00,,,0.05,Wunderground v.1.15,2013-04-12 10:18:00,
2013-04-12 06:24:00,54.2,53.1,29.55,South,182,0.0,2.0,96,0.00,,,0.05,Wunderground v.1.15,2013-04-12 10:24:00,
2013-04-12 06:30:00,54.1,53.0,29.55,ESE,116,1.0,1.0,96,0.00,,,0.05,Wunderground v.1.15,2013-04-12 10:30:00,
2013-04-12 06:35:00,54.2,53.4,29.55,SSE,164,1.0,4.0,97,0.00,,,0.05,Wunderground v.1.15,2013-04-12 10:35:00,
2013-04-12 06:42:00,54.3,53.5,29.55,SE,146,2.0,2.0,97,0.00,,,0.06,Wunderground v.1.15,2013-04-12 10:42:00,
2013-04-12 06:48:00,54.3,53.5,29.55,SSW,203,2.0,3.0,97,0.00,,,0.06,Wunderground v.1.15,2013-04-12 10:48:00,
2013-04-12 06:53:00,54.3,53.5,29.55,SSE,159,1.0,3.0,97,0.00,,,0.06,Wunderground v.1.15,2013-04-12 10:53:00,
2013-04-12 06:59:00,54.3,53.5,29.55,SSE,166,1.0,1.0,97,0.00,,,0.06,Wunderground v.1.15,2013-04-12 10:59:00,
2013-04-12 07:04:00,54.4,53.6,29.56,SSE,161,2.0,6.0,97,0.00,,,0.06,Wunderground v.1.15,2013-04-12 11:04:00,
2013-04-12 07:10:00,54.6,53.8,29.55,SSE,165,2.0,6.0,97,0.00,,,0.06,Wunderground v.1.15,2013-04-12 11:10:00,
2013-04-12 07:17:00,54.8,54.0,29.55,SSE,167,2.0,6.0,97,0.00,,,0.06,Wunderground v.1.15,2013-04-12 11:17:00,
2013-04-12 07:23:00,55.0,54.2,29.55,South,188,2.0,6.0,97,0.00,,,0.06,Wunderground v.1.15,2013-04-12 11:23:00,
2013-04-12 07:28:00,55.1,54.3,29.55,SSE,157,3.0,6.0,97,0.00,,,0.06,Wunderground v.1.15,2013-04-12 11:28:00,
2013-04-12 07:34:00,55.3,54.7,29.55,SE,144,3.0,6.0,98,0.00,,,0.06,Wunderground v.1.15,2013-04-12 11:34:00,
2013-04-12 07:40:00,55.5,54.9,29.56,SSW,197,3.0,6.0,98,0.00,,,0.06,Wunderground v.1.15,2013-04-12 11:40:00,
2013-04-12 07:46:00,55.0,54.2,29.58,West,273,5.0,15.0,97,0.00,,,0.06,Wunderground v.1.15,2013-04-12 11:46:00,
2013-04-12 07:51:00,53.5,52.4,29.58,NW,313,7.0,9.0,96,0.00,,,0.06,Wunderground v.1.15,2013-04-12 11:51:00,
2013-04-12 07:58:00,52.0,50.9,29.58,West,271,5.0,9.0,96,0.00,,,0.06,Wunderground v.1.15,2013-04-12 11:58:00,
2013-04-12 08:04:00,51.2,50.1,29.59,West,278,4.0,8.0,96,0.00,,,0.07,Wunderground v.1.15,2013-04-12 12:04:00,
2013-04-12 08:10:00,50.3,49.2,29.59,WSW,248,5.0,7.0,96,0.00,,,0.07,Wunderground v.1.15,2013-04-12 12:10:00,
2013-04-12 08:15:00,49.6,48.5,29.59,WSW,242,7.0,9.0,96,0.00,,,0.07,Wunderground v.1.15,2013-04-12 12:15:00,
2013-04-12 08:21:00,48.8,47.7,29.60,WSW,252,6.0,7.0,96,0.00,,,0.07,Wunderground v.1.15,2013-04-12 12:21:00,
2013-04-12 08:26:00,48.1,47.0,29.60,NW,307,5.0,7.0,96,0.00,,,0.07,Wunderground v.1.15,2013-04-12 12:26:00,
2013-04-12 08:31:00,47.5,46.4,29.61,West,267,4.0,6.0,96,0.00,,,0.07,Wunderground v.1.15,2013-04-12 12:31:00,
2013-04-12 08:36:00,46.7,45.3,29.62,WSW,257,4.0,6.0,95,0.00,,,0.08,Wunderground v.1.15,2013-04-12 12:36:00,
2013-04-12 08:42:00,45.9,44.8,29.63,WSW,250,5.0,10.0,96,0.00,,,0.08,Wunderground v.1.15,2013-04-12 12:42:00,
2013-04-12 08:48:00,45.4,44.3,29.62,WSW,252,6.0,11.0,96,0.00,,,0.08,Wunderground v.1.15,2013-04-12 12:48:00,
2013-04-12 08:55:00,45.1,44.0,29.63,WSW,250,5.0,8.0,96,0.00,,,0.08,Wunderground v.1.15,2013-04-12 12:55:00,
2013-04-12 09:00:00,45.1,44.0,29.63,WSW,242,5.0,6.0,96,0.00,,,0.08,Wunderground v.1.15,2013-04-12 13:00:00,
2013-04-12 09:06:00,45.1,44.3,29.62,WSW,240,6.0,9.0,97,0.00,,,0.08,Wunderground v.1.15,2013-04-12 13:06:00,
2013-04-12 09:11:00,45.1,44.3,29.63,WSW,239,7.0,8.0,97,0.00,,,0.08,Wunderground v.1.15,2013-04-12 13:11:00,
2013-04-12 09:16:00,45.1,44.3,29.64,West,259,8.0,17.0,97,0.00,,,0.08,Wunderground v.1.15,2013-04-12 13:16:00,
2013-04-12 09:21:00,44.8,44.0,29.64,WSW,250,9.0,12.0,97,0.00,,,0.08,Wunderground v.1.15,2013-04-12 13:21:00,
2013-04-12 09:26:00,44.7,43.9,29.65,WSW,238,7.0,15.0,97,0.00,,,0.08,Wunderground v.1.15,2013-04-12 13:26:00,
2013-04-12 09:32:00,44.1,43.0,29.65,West,259,9.0,14.0,96,0.00,,,0.08,Wunderground v.1.15,2013-04-12 13:32:00,
2013-04-12 09:38:00,43.6,42.5,29.65,WSW,248,10.0,14.0,96,0.00,,,0.08,Wunderground v.1.15,2013-04-12 13:38:00,
2013-04-12 09:44:00,43.3,42.2,29.66,WSW,239,9.0,13.0,96,0.00,,,0.09,Wunderground v.1.15,2013-04-12 13:44:00,
2013-04-12 09:49:00,43.0,41.9,29.67,WSW,239,10.0,15.0,96,0.00,,,0.09,Wunderground v.1.15,2013-04-12 13:49:00,
2013-04-12 09:54:00,42.7,41.6,29.67,WSW,250,10.0,15.0,96,0.00,,,0.09,Wunderground v.1.15,2013-04-12 13:54:00,
2013-04-12 09:59:00,42.5,41.4,29.68,WSW,239,9.0,9.0,96,0.00,,,0.09,Wunderground v.1.15,2013-04-12 13:59:00,
2013-04-12 10:05:00,42.1,40.8,29.68,WSW,246,9.0,14.0,95,0.00,,,0.09,Wunderground v.1.15,2013-04-12 14:05:00,
2013-04-12 10:10:00,41.9,40.6,29.69,WSW,258,9.0,14.0,95,0.00,,,0.09,Wunderground v.1.15,2013-04-12 14:10:00,
2013-04-12 10:15:00,41.7,40.4,29.69,WSW,252,6.0,14.0,95,0.00,,,0.10,Wunderground v.1.15,2013-04-12 14:15:00,
2013-04-12 10:20:00,41.4,40.3,29.69,West,271,7.0,14.0,96,0.00,,,0.10,Wunderground v.1.15,2013-04-12 14:20:00,
2013-04-12 10:27:00,41.0,39.9,29.69,West,279,7.0,14.0,96,0.00,,,0.10,Wunderground v.1.15,2013-04-12 14:27:00,
2013-04-12 10:33:00,40.9,39.8,29.69,WSW,253,8.0,14.0,96,0.00,,,0.10,Wunderground v.1.15,2013-04-12 14:33:00,
2013-04-12 10:38:00,40.8,39.7,29.70,SW,230,8.0,14.0,96,0.00,,,0.10,Wunderground v.1.15,2013-04-12 14:38:00,
2013-04-12 10:44:00,40.9,39.8,29.70,WSW,251,6.0,14.0,96,0.00,,,0.10,Wunderground v.1.15,2013-04-12 14:44:00,
2013-04-12 10:50:00,40.9,39.8,29.70,WSW,250,6.0,14.0,96,0.00,,,0.10,Wunderground v.1.15,2013-04-12 14:50:00,
2013-04-12 10:57:00,40.8,39.7,29.70,WSW,257,10.0,14.0,96,0.00,,,0.10,Wunderground v.1.15,2013-04-12 14:57:00,
2013-04-12 11:03:00,40.9,39.8,29.71,West,270,10.0,14.0,96,0.00,,,0.10,Wunderground v.1.15,2013-04-12 15:03:00,
2013-04-12 11:09:00,41.0,39.9,29.71,West,265,9.0,9.0,96,0.00,,,0.11,Wunderground v.1.15,2013-04-12 15:09:00,
2013-04-12 11:15:00,41.1,40.0,29.71,WSW,252,8.0,15.0,96,0.00,,,0.11,Wunderground v.1.15,2013-04-12 15:15:00,
2013-04-12 11:21:00,41.1,39.8,29.72,WSW,253,8.0,14.0,95,0.00,,,0.11,Wunderground v.1.15,2013-04-12 15:21:00,
2013-04-12 11:27:00,41.3,40.0,29.73,West,261,10.0,17.0,95,0.00,,,0.11,Wunderground v.1.15,2013-04-12 15:27:00,
2013-04-12 11:33:00,41.4,40.1,29.73,WSW,256,10.0,14.0,95,0.00,,,0.11,Wunderground v.1.15,2013-04-12 15:33:00,
2013-04-12 11:38:00,41.5,40.2,29.73,West,271,10.0,14.0,95,0.40,,,0.34,Wunderground v.1.15,2013-04-12 15:38:00,
2013-04-12 11:43:00,41.6,40.3,29.73,SW,223,9.0,14.0,95,0.09,,,0.34,Wunderground v.1.15,2013-04-12 15:43:00,
2013-04-12 11:49:00,41.8,40.2,29.73,WNW,282,8.0,14.0,94,0.05,,,0.34,Wunderground v.1.15,2013-04-12 15:49:00,
2013-04-12 11:55:00,41.9,40.3,29.74,WSW,253,9.0,14.0,94,0.00,,,0.34,Wunderground v.1.15,2013-04-12 15:55:00,
2013-04-12 12:00:00,42.1,40.5,29.74,SW,219,6.0,9.0,94,0.00,,,0.34,Wunderground v.1.15,2013-04-12 16:00:00,
2013-04-12 12:05:00,42.2,40.6,29.74,WSW,249,5.0,10.0,94,0.00,,,0.34,Wunderground v.1.15,2013-04-12 16:05:00,
2013-04-12 12:11:00,42.5,40.9,29.74,West,262,6.0,10.0,94,0.00,,,0.34,Wunderground v.1.15,2013-04-12 16:11:00,
2013-04-12 12:17:00,42.7,40.8,29.74,SW,231,7.0,12.0,93,0.00,,,0.34,Wunderground v.1.15,2013-04-12 16:17:00,
2013-04-12 12:23:00,42.9,41.0,29.74,West,260,6.0,8.0,93,0.00,,,0.34,Wunderground v.1.15,2013-04-12 16:23:00,
2013-04-12 12:29:00,43.1,41.2,29.74,SW,233,6.0,6.0,93,0.00,,,0.34,Wunderground v.1.15,2013-04-12 16:29:00,
2013-04-12 12:35:00,43.2,41.0,29.75,WSW,242,8.0,14.0,92,0.00,,,0.34,Wunderground v.1.15,2013-04-12 16:35:00,
2013-04-12 12:41:00,43.3,41.1,29.75,WSW,239,8.0,8.0,92,0.00,,,0.34,Wunderground v.1.15,2013-04-12 16:41:00,
2013-04-12 12:47:00,43.3,41.1,29.75,West,265,8.0,14.0,92,0.00,,,0.34,Wunderground v.1.15,2013-04-12 16:47:00,
2013-04-12 12:52:00,43.3,41.4,29.75,SW,218,8.0,9.0,93,0.00,,,0.34,Wunderground v.1.15,2013-04-12 16:52:00,
2013-04-12 12:58:00,43.4,41.8,29.75,WSW,246,7.0,9.0,94,0.00,,,0.34,Wunderground v.1.15,2013-04-12 16:58:00,
2013-04-12 13:04:00,43.7,42.1,29.75,SSW,205,5.0,18.0,94,0.00,,,0.34,Wunderground v.1.15,2013-04-12 17:04:00,
2013-04-12 13:09:00,44.1,42.5,29.75,SW,234,5.0,18.0,94,0.00,,,0.34,Wunderground v.1.15,2013-04-12 17:09:00,
2013-04-12 13:14:00,44.4,42.5,29.76,WSW,239,7.0,18.0,93,0.00,,,0.34,Wunderground v.1.15,2013-04-12 17:14:00,
2013-04-12 13:19:00,44.6,42.7,29.76,West,277,7.0,18.0,93,0.00,,,0.34,Wunderground v.1.15,2013-04-12 17:19:00,
2013-04-12 13:24:00,44.6,42.4,29.76,SW,217,7.0,18.0,92,0.00,,,0.34,Wunderground v.1.15,2013-04-12 17:24:00,
2013-04-12 13:29:00,44.6,41.6,29.76,SW,228,8.0,18.0,89,0.00,,,0.34,Wunderground v.1.15,2013-04-12 17:29:00,
2013-04-12 13:34:00,44.8,41.5,29.76,SW,224,10.0,18.0,88,0.00,,,0.34,Wunderground v.1.15,2013-04-12 17:34:00,
2013-04-12 13:40:00,45.1,41.2,29.76,WSW,243,10.0,18.0,86,0.00,,,0.34,Wunderground v.1.15,2013-04-12 17:40:00,
2013-04-12 13:46:00,45.1,40.9,29.76,WSW,241,9.0,18.0,85,0.00,,,0.34,Wunderground v.1.15,2013-04-12 17:46:00,
2013-04-12 13:54:00,45.0,40.5,29.76,WSW,257,8.0,18.0,84,0.00,,,0.34,Wunderground v.1.15,2013-04-12 17:54:00,
2013-04-12 13:59:00,45.0,40.5,29.76,SW,227,9.0,18.0,84,0.00,,,0.34,Wunderground v.1.15,2013-04-12 17:59:00,
2013-04-12 14:05:00,45.0,40.5,29.76,SW,223,10.0,18.0,84,0.00,,,0.34,Wunderground v.1.15,2013-04-12 18:05:00,
2013-04-12 14:15:00,44.7,40.5,29.77,WSW,257,11.0,18.0,85,0.00,,,0.34,Wunderground v.1.15,2013-04-12 18:15:00,
2013-04-12 14:23:00,44.4,40.5,29.77,West,265,10.0,18.0,86,0.00,,,0.34,Wunderground v.1.15,2013-04-12 18:23:00,
2013-04-12 14:29:00,44.2,40.3,29.77,WSW,237,9.0,9.0,86,0.00,,,0.34,Wunderground v.1.15,2013-04-12 18:29:00,
2013-04-12 15:27:00,43.4,38.0,29.80,WSW,244,9.0,12.0,81,0.00,,,0.34,Wunderground v.1.15,2013-04-12 19:27:00,
2013-04-12 15:28:00,43.4,38.0,29.80,SSW,202,9.0,12.0,81,0.00,,,0.34,Wunderground v.1.15,2013-04-12 19:28:00,
2013-04-12 15:34:00,43.1,37.7,29.80,SW,223,10.0,13.0,81,0.00,,,0.34,Wunderground v.1.15,2013-04-12 19:34:00,
2013-04-12 15:38:00,43.0,37.9,29.80,West,259,9.0,13.0,82,0.00,,,0.34,Wunderground v.1.15,2013-04-12 19:38:00,
2013-04-12 15:42:00,42.9,37.8,29.80,West,261,10.0,15.0,82,0.00,,,0.34,Wunderground v.1.15,2013-04-12 19:42:00,
2013-04-12 15:47:00,42.7,37.9,29.81,WSW,244,10.0,15.0,83,0.00,,,0.34,Wunderground v.1.15,2013-04-12 19:47:00,
2013-04-12 15:53:00,42.4,37.0,29.81,SSW,196,10.0,19.0,81,0.00,,,0.34,Wunderground v.1.15,2013-04-12 19:53:00,
2013-04-12 15:59:00,42.3,36.6,29.81,WSW,252,13.0,18.0,80,0.00,,,0.34,Wunderground v.1.15,2013-04-12 19:59:00,
2013-04-12 16:05:00,42.2,36.2,29.81,SW,232,13.0,22.0,79,0.00,,,0.34,Wunderground v.1.15,2013-04-12 20:05:00,
2013-04-12 16:11:00,42.2,36.2,29.82,South,187,10.0,20.0,79,0.00,,,0.34,Wunderground v.1.15,2013-04-12 20:11:00,
2013-04-12 16:17:00,42.3,36.3,29.81,WSW,257,9.0,20.0,79,0.00,,,0.34,Wunderground v.1.15,2013-04-12 20:17:00,
2013-04-12 16:22:00,42.4,36.0,29.82,WSW,244,9.0,20.0,78,0.00,,,0.34,Wunderground v.1.15,2013-04-12 20:22:00,
2013-04-12 16:28:00,42.1,36.4,29.83,West,265,9.0,20.0,80,0.00,,,0.34,Wunderground v.1.15,2013-04-12 20:28:00,
2013-04-12 16:33:00,41.5,36.1,29.83,WSW,252,10.0,20.0,81,0.00,,,0.34,Wunderground v.1.15,2013-04-12 20:33:00,
2013-04-12 16:38:00,41.0,35.9,29.83,WSW,244,11.0,20.0,82,0.00,,,0.34,Wunderground v.1.15,2013-04-12 20:38:00,
2013-04-12 16:43:00,40.7,35.3,29.83,SSW,213,12.0,20.0,81,0.00,,,0.34,Wunderground v.1.15,2013-04-12 20:43:00,
2013-04-12 16:48:00,40.6,35.2,29.84,WSW,254,12.0,20.0,81,0.00,,,0.34,Wunderground v.1.15,2013-04-12 20:48:00,
2013-04-12 16:54:00,40.5,34.8,29.84,WSW,239,11.0,20.0,80,0.00,,,0.34,Wunderground v.1.15,2013-04-12 20:54:00,
2013-04-12 16:59:00,40.5,34.8,29.84,SW,234,11.0,20.0,80,0.00,,,0.34,Wunderground v.1.15,2013-04-12 20:59:00,
2013-04-12 17:04:00,40.4,34.7,29.84,SW,230,10.0,20.0,80,0.00,,,0.34,Wunderground v.1.15,2013-04-12 21:04:00,
2013-04-12 17:10:00,40.5,34.5,29.84,WNW,296,7.0,20.0,79,0.00,,,0.34,Wunderground v.1.15,2013-04-12 21:10:00,
2013-04-12 17:15:00,40.5,34.5,29.85,WSW,240,8.0,20.0,79,0.00,,,0.34,Wunderground v.1.15,2013-04-12 21:15:00,
2013-04-12 17:21:00,40.5,34.8,29.85,West,280,10.0,20.0,80,0.00,,,0.34,Wunderground v.1.15,2013-04-12 21:21:00,
2013-04-12 17:26:00,40.5,34.8,29.85,SSW,213,10.0,20.0,80,0.00,,,0.34,Wunderground v.1.15,2013-04-12 21:26:00,
2013-04-12 17:31:00,40.5,35.1,29.85,SSW,194,8.0,20.0,81,0.00,,,0.34,Wunderground v.1.15,2013-04-12 21:31:00,
2013-04-12 17:36:00,40.5,34.8,29.86,WSW,240,9.0,20.0,80,0.00,,,0.34,Wunderground v.1.15,2013-04-12 21:36:00,
2013-04-12 17:42:00,40.4,35.0,29.86,West,265,10.0,20.0,81,0.00,,,0.34,Wunderground v.1.15,2013-04-12 21:42:00,
2013-04-12 17:48:00,40.2,35.4,29.87,WSW,250,8.0,20.0,83,0.00,,,0.34,Wunderground v.1.15,2013-04-12 21:48:00,
2013-04-12 17:53:00,40.1,35.0,29.87,SW,225,7.0,20.0,82,0.00,,,0.34,Wunderground v.1.15,2013-04-12 21:53:00,
2013-04-12 17:59:00,40.2,33.9,29.87,WSW,238,8.0,12.0,78,0.00,,,0.34,Wunderground v.1.15,2013-04-12 21:59:00,
2013-04-12 18:05:00,40.4,34.1,29.87,WSW,257,10.0,15.0,78,0.00,,,0.34,Wunderground v.1.15,2013-04-12 22:05:00,
2013-04-12 18:10:00,40.5,33.5,29.88,WSW,252,11.0,11.0,76,0.00,,,0.34,Wunderground v.1.15,2013-04-12 22:10:00,
2013-04-12 18:16:00,40.5,33.2,29.88,West,273,12.0,15.0,75,0.00,,,0.34,Wunderground v.1.15,2013-04-12 22:16:00,
2013-04-12 18:22:00,40.3,33.7,29.88,WSW,248,11.0,12.0,77,0.00,,,0.34,Wunderground v.1.15,2013-04-12 22:22:00,
2013-04-12 18:28:00,40.2,33.6,29.88,SW,215,8.0,12.0,77,0.00,,,0.34,Wunderground v.1.15,2013-04-12 22:28:00,
2013-04-12 18:33:00,40.2,33.6,29.89,West,259,7.0,10.0,77,0.00,,,0.34,Wunderground v.1.15,2013-04-12 22:33:00,
2013-04-12 18:38:00,40.1,33.5,29.89,West,260,8.0,15.0,77,0.00,,,0.34,Wunderground v.1.15,2013-04-12 22:38:00,
2013-04-12 18:44:00,40.1,33.1,29.89,WSW,238,11.0,18.0,76,0.00,,,0.34,Wunderground v.1.15,2013-04-12 22:44:00,
2013-04-12 18:49:00,40.1,33.5,29.90,SSW,213,9.0,10.0,77,0.00,,,0.34,Wunderground v.1.15,2013-04-12 22:49:00,
2013-04-12 18:55:00,40.1,33.5,29.90,WSW,241,6.0,10.0,77,0.00,,,0.34,Wunderground v.1.15,2013-04-12 22:55:00,
2013-04-12 19:01:00,40.0,33.7,29.89,SW,234,6.0,21.0,78,0.00,,,0.34,Wunderground v.1.15,2013-04-12 23:01:00,
2013-04-12 19:07:00,40.0,33.7,29.90,South,175,6.0,21.0,78,0.00,,,0.34,Wunderground v.1.15,2013-04-12 23:07:00,
2013-04-12 19:12:00,39.9,33.6,29.90,SW,225,7.0,21.0,78,0.00,,,0.34,Wunderground v.1.15,2013-04-12 23:12:00,
2013-04-12 19:17:00,39.8,33.8,29.90,SW,221,7.0,21.0,79,0.00,,,0.34,Wunderground v.1.15,2013-04-12 23:17:00,
2013-04-12 19:22:00,39.8,33.8,29.90,SW,229,6.0,21.0,79,0.00,,,0.34,Wunderground v.1.15,2013-04-12 23:22:00,
2013-04-12 19:27:00,39.8,33.8,29.90,WSW,248,6.0,21.0,79,0.00,,,0.34,Wunderground v.1.15,2013-04-12 23:27:00,
2013-04-12 19:33:00,39.8,33.8,29.90,WSW,237,7.0,21.0,79,0.00,,,0.34,Wunderground v.1.15,2013-04-12 23:33:00,
2013-04-12 19:38:00,39.8,33.8,29.90,SW,233,7.0,7.0,79,0.00,,,0.34,Wunderground v.1.15,2013-04-12 23:38:00,
2013-04-12 19:44:00,39.8,33.8,29.90,SSW,205,5.0,21.0,79,0.00,,,0.34,Wunderground v.1.15,2013-04-12 23:44:00,
2013-04-12 19:50:00,39.8,33.8,29.90,SW,225,6.0,21.0,79,0.00,,,0.34,Wunderground v.1.15,2013-04-12 23:50:00,
2013-04-12 19:56:00,39.8,33.8,29.90,SW,236,5.0,21.0,79,0.00,,,0.34,Wunderground v.1.15,2013-04-12 23:56:00,
2013-04-12 20:02:00,39.7,33.7,29.90,SSW,207,5.0,21.0,79,0.00,,,0.34,Wunderground v.1.15,2013-04-13 00:02:00,
2013-04-12 20:08:00,39.7,34.0,29.90,West,265,6.0,21.0,80,0.00,,,0.34,Wunderground v.1.15,2013-04-13 00:08:00,
2013-04-12 20:14:00,39.6,33.9,29.90,SW,226,7.0,21.0,80,0.00,,,0.34,Wunderground v.1.15,2013-04-13 00:14:00,
2013-04-12 20:19:00,39.5,33.8,29.90,West,273,6.0,21.0,80,0.00,,,0.34,Wunderground v.1.15,2013-04-13 00:19:00,
2013-04-12 20:25:00,39.5,33.8,29.90,SSW,205,5.0,21.0,80,0.00,,,0.34,Wunderground v.1.15,2013-04-13 00:25:00,
2013-04-12 20:31:00,39.5,34.2,29.90,SSW,195,6.0,21.0,81,0.00,,,0.34,Wunderground v.1.15,2013-04-13 00:31:00,
2013-04-12 20:36:00,39.4,34.4,29.91,SW,215,6.0,21.0,82,0.00,,,0.34,Wunderground v.1.15,2013-04-13 00:36:00,
2013-04-12 20:42:00,39.3,34.3,29.91,SW,214,7.0,21.0,82,0.00,,,0.34,Wunderground v.1.15,2013-04-13 00:42:00,
2013-04-12 20:48:00,39.2,34.5,29.91,South,175,7.0,21.0,83,0.00,,,0.34,Wunderground v.1.15,2013-04-13 00:48:00,
2013-04-12 20:53:00,39.1,34.4,29.91,South,190,6.0,21.0,83,0.00,,,0.34,Wunderground v.1.15,2013-04-13 00:53:00,
2013-04-12 20:59:00,39.1,34.4,29.91,SSW,206,7.0,21.0,83,0.00,,,0.34,Wunderground v.1.15,2013-04-13 00:59:00,
2013-04-12 21:04:00,39.1,34.4,29.91,SSW,204,6.0,7.0,83,0.00,,,0.34,Wunderground v.1.15,2013-04-13 01:04:00,
2013-04-12 21:09:00,39.1,34.7,29.91,South,178,5.0,5.0,84,0.00,,,0.34,Wunderground v.1.15,2013-04-13 01:09:00,
2013-04-12 21:14:00,39.0,34.6,29.92,SSE,161,4.0,7.0,84,0.00,,,0.34,Wunderground v.1.15,2013-04-13 01:14:00,
2013-04-12 21:20:00,39.0,34.6,29.92,SSW,207,6.0,6.0,84,0.00,,,0.34,Wunderground v.1.15,2013-04-13 01:20:00,
2013-04-12 21:26:00,39.0,34.6,29.91,SSE,167,5.0,8.0,84,0.00,,,0.34,Wunderground v.1.15,2013-04-13 01:26:00,
2013-04-12 21:32:00,39.1,34.7,29.92,SSE,162,5.0,6.0,84,0.00,,,0.34,Wunderground v.1.15,2013-04-13 01:32:00,
2013-04-12 21:38:00,39.1,34.7,29.92,SW,220,6.0,10.0,84,0.00,,,0.34,Wunderground v.1.15,2013-04-13 01:38:00,
2013-04-12 21:45:00,39.1,34.7,29.92,SSW,199,5.0,6.0,84,0.00,,,0.34,Wunderground v.1.15,2013-04-13 01:45:00,
2013-04-12 21:51:00,39.1,34.7,29.92,South,181,5.0,5.0,84,0.00,,,0.34,Wunderground v.1.15,2013-04-13 01:51:00,
2013-04-12 21:57:00,39.1,34.7,29.92,SW,228,5.0,8.0,84,0.00,,,0.34,Wunderground v.1.15,2013-04-13 01:57:00,
2013-04-12 22:03:00,39.1,34.7,29.92,SW,226,5.0,15.0,84,0.00,,,0.34,Wunderground v.1.15,2013-04-13 02:03:00,
2013-04-12 22:09:00,39.1,34.7,29.92,SSW,206,4.0,15.0,84,0.00,,,0.34,Wunderground v.1.15,2013-04-13 02:09:00,
2013-04-12 22:14:00,39.1,34.7,29.93,South,182,6.0,15.0,84,0.00,,,0.34,Wunderground v.1.15,2013-04-13 02:14:00,
2013-04-12 22:20:00,39.1,35.0,29.93,SW,233,5.0,15.0,85,0.00,,,0.34,Wunderground v.1.15,2013-04-13 02:20:00,
2013-04-12 22:26:00,39.1,35.0,29.93,SSW,213,4.0,15.0,85,0.00,,,0.34,Wunderground v.1.15,2013-04-13 02:26:00,
2013-04-12 22:31:00,39.1,35.0,29.93,SSW,193,5.0,15.0,85,0.00,,,0.34,Wunderground v.1.15,2013-04-13 02:31:00,
2013-04-12 22:37:00,39.1,35.0,29.93,SW,225,5.0,15.0,85,0.00,,,0.34,Wunderground v.1.15,2013-04-13 02:37:00,
2013-04-12 22:43:00,39.1,35.0,29.94,South,182,5.0,15.0,85,0.00,,,0.34,Wunderground v.1.15,2013-04-13 02:43:00,
2013-04-12 22:48:00,39.1,35.0,29.93,SSW,213,5.0,15.0,85,0.00,,,0.34,Wunderground v.1.15,2013-04-13 02:48:00,
2013-04-12 22:54:00,39.1,35.0,29.93,South,188,5.0,15.0,85,0.00,,,0.34,Wunderground v.1.15,2013-04-13 02:54:00,
2013-04-12 23:00:00,39.0,35.2,29.93,South,173,4.0,4.0,86,0.00,,,0.34,Wunderground v.1.15,2013-04-13 03:00:00,
2013-04-12 23:06:00,39.0,35.2,29.93,SSW,202,5.0,15.0,86,0.00,,,0.34,Wunderground v.1.15,2013-04-13 03:06:00,
2013-04-12 23:11:00,39.0,35.2,29.93,SSW,209,5.0,15.0,86,0.00,,,0.34,Wunderground v.1.15,2013-04-13 03:11:00,
2013-04-12 23:17:00,38.9,35.1,29.93,South,169,4.0,15.0,86,0.00,,,0.34,Wunderground v.1.15,2013-04-13 03:17:00,
2013-04-12 23:23:00,38.9,35.4,29.93,SSE,166,5.0,15.0,87,0.00,,,0.34,Wunderground v.1.15,2013-04-13 03:23:00,
2013-04-12 23:29:00,38.9,35.4,29.93,SSW,198,4.0,15.0,87,0.00,,,0.34,Wunderground v.1.15,2013-04-13 03:29:00,
2013-04-12 23:35:00,38.9,35.4,29.93,SSW,213,4.0,15.0,87,0.00,,,0.34,Wunderground v.1.15,2013-04-13 03:35:00,
2013-04-12 23:41:00,38.9,35.4,29.93,South,175,4.0,15.0,87,0.00,,,0.34,Wunderground v.1.15,2013-04-13 03:41:00,
2013-04-12 23:46:00,39.0,35.2,29.93,South,186,4.0,15.0,86,0.00,,,0.34,Wunderground v.1.15,2013-04-13 03:46:00,
2013-04-12 23:55:00,39.1,35.3,29.93,SW,234,5.0,15.0,86,0.00,,,0.34,Wunderground v.1.15,2013-04-13 03:55:00,